createdAt,value
2023-05-14T00:00:27.142Z,90.19
2023-05-14T00:02:54.288Z,90.64
2023-05-14T00:05:20.977Z,93.80
2023-05-14T00:07:47.629Z,96.86
2023-05-14T00:10:14.109Z,93.57
2023-05-14T00:12:40.874Z,96.42
2023-05-14T00:15:08.092Z,94.98
2023-05-14T00:17:34.533Z,94.39
2023-05-14T00:20:01.260Z,93.51
2023-05-14T00:22:27.655Z,92.53
2023-05-14T00:24:54.098Z,91.66
2023-05-14T00:27:20.511Z,91.21
2023-05-14T00:29:46.929Z,96.12
2023-05-14T00:32:13.336Z,94.77
2023-05-14T00:34:39.734Z,95.69
2023-05-14T00:37:06.222Z,93.56
2023-05-14T00:39:32.732Z,93.41
2023-05-14T00:41:59.247Z,92.93
2023-05-14T00:44:25.766Z,92.34
2023-05-14T00:46:52.942Z,92.20
2023-05-14T00:49:19.646Z,91.68
2023-05-14T00:51:47.093Z,91.23
2023-05-14T00:54:17.061Z,91.33
2023-05-14T00:56:45.902Z,91.91
2023-05-14T00:59:13.228Z,91.53
2023-05-14T01:01:40.093Z,91.37
2023-05-14T01:04:07.682Z,91.44
2023-05-14T01:06:47.435Z,92.26
2023-05-14T01:09:22.238Z,91.67
2023-05-14T01:12:03.110Z,91.79
2023-05-14T01:14:43.258Z,91.37
2023-05-14T01:17:13.145Z,90.83
2023-05-14T01:19:44.494Z,91.47
2023-05-14T01:22:11.750Z,91.34
2023-05-14T01:24:38.356Z,91.94
2023-05-14T01:27:13.228Z,92.33
2023-05-14T01:29:45.244Z,91.70
2023-05-14T01:32:13.448Z,91.71
2023-05-14T01:34:40.480Z,92.37
2023-05-14T01:37:09.400Z,93.43
2023-05-14T01:39:37.918Z,93.69
2023-05-14T01:42:05.194Z,92.54
2023-05-14T01:44:32.658Z,91.89
2023-05-14T01:46:59.149Z,91.87
2023-05-14T01:49:25.603Z,91.41
2023-05-14T01:51:52.034Z,93.21
2023-05-14T01:54:18.446Z,93.96
2023-05-14T01:56:44.899Z,93.88
2023-05-14T01:59:11.362Z,92.94
2023-05-14T02:01:37.839Z,92.57
2023-05-14T02:04:04.564Z,91.94
2023-05-14T02:06:32.175Z,91.69
2023-05-14T02:08:58.981Z,92.26
2023-05-14T02:11:26.196Z,91.98
2023-05-14T02:13:52.624Z,91.46
2023-05-14T02:16:19.326Z,91.91
2023-05-14T02:18:45.928Z,91.89
2023-05-14T02:21:12.424Z,91.75
2023-05-14T02:23:41.891Z,91.73
2023-05-14T02:26:10.011Z,91.68
2023-05-14T02:28:36.513Z,91.71
2023-05-14T02:31:03.196Z,91.49
2023-05-14T02:33:29.809Z,91.83
2023-05-14T02:35:56.363Z,91.73
2023-05-14T02:38:23.347Z,91.67
2023-05-14T02:40:49.943Z,91.78
2023-05-14T02:43:16.368Z,92.42
2023-05-14T02:45:43.019Z,92.42
2023-05-14T02:48:09.449Z,92.61
2023-05-14T02:50:35.871Z,92.81
2023-05-14T02:53:02.284Z,92.52
2023-05-14T02:55:28.792Z,92.64
2023-05-14T02:57:55.268Z,92.17
2023-05-14T03:00:22.052Z,91.87
2023-05-14T03:02:49.004Z,92.87
2023-05-14T03:05:15.817Z,94.21
2023-05-14T03:07:42.207Z,95.29
2023-05-14T03:10:09.099Z,96.01
2023-05-14T03:12:35.669Z,94.04
2023-05-14T03:15:02.186Z,96.00
2023-05-14T03:17:28.666Z,95.82
2023-05-14T03:19:55.093Z,94.65
2023-05-14T03:22:21.874Z,93.83
2023-05-14T03:24:48.254Z,93.50
2023-05-14T03:27:14.701Z,93.08
2023-05-14T03:29:41.108Z,93.09
2023-05-14T03:32:07.573Z,92.21
2023-05-14T03:34:34.164Z,92.55
2023-05-14T03:37:00.601Z,92.50
2023-05-14T03:39:26.990Z,92.30
2023-05-14T03:41:53.572Z,91.97
2023-05-14T03:44:19.965Z,91.94
2023-05-14T03:46:46.358Z,93.09
2023-05-14T03:49:12.853Z,93.13
2023-05-14T03:51:39.534Z,92.86
2023-05-14T03:54:06.998Z,92.74
2023-05-14T03:56:33.462Z,92.69
2023-05-14T03:58:59.848Z,93.13
2023-05-14T04:01:26.247Z,93.02
2023-05-14T04:03:52.793Z,92.71
2023-05-14T04:06:19.395Z,92.51
2023-05-14T04:08:45.823Z,94.34
2023-05-14T04:11:12.263Z,93.91
2023-05-14T04:13:38.706Z,96.68
2023-05-14T04:16:05.630Z,95.57
2023-05-14T04:18:35.276Z,95.03
2023-05-14T04:21:02.234Z,94.40
2023-05-14T04:23:29.683Z,94.51
2023-05-14T04:25:56.120Z,94.17
2023-05-14T04:28:22.567Z,94.43
2023-05-14T04:30:49.332Z,94.08
2023-05-14T04:33:15.732Z,94.08
2023-05-14T04:35:42.157Z,93.98
2023-05-14T04:38:09.107Z,93.88
2023-05-14T04:40:35.671Z,93.48
2023-05-14T04:43:02.068Z,93.33
2023-05-14T04:45:28.559Z,95.11
2023-05-14T04:47:55.095Z,94.35
2023-05-14T04:50:22.062Z,97.81
2023-05-14T04:52:48.780Z,99.60
2023-05-14T04:55:15.283Z,96.91
2023-05-14T04:57:41.722Z,96.10
2023-05-14T05:00:09.963Z,95.79
2023-05-14T05:02:36.457Z,95.65
2023-05-14T05:05:04.065Z,96.53
2023-05-14T05:07:30.624Z,96.91
2023-05-14T05:09:56.993Z,96.00
2023-05-14T05:12:23.381Z,95.63
2023-05-14T05:14:49.777Z,95.26
2023-05-14T05:17:16.154Z,95.07
2023-05-14T05:19:44.104Z,95.52
2023-05-14T05:22:10.914Z,95.80
2023-05-14T05:24:37.559Z,94.83
2023-05-14T05:27:05.395Z,93.69
2023-05-14T05:29:32.016Z,93.47
2023-05-14T05:31:58.985Z,90.16
2023-05-14T05:34:25.416Z,90.96
2023-05-14T05:36:51.782Z,89.03
2023-05-14T05:39:18.219Z,89.33
2023-05-14T05:41:44.741Z,89.85
2023-05-14T05:44:11.236Z,88.73
2023-05-14T05:46:37.797Z,88.14
2023-05-14T05:49:04.423Z,87.07
2023-05-14T05:51:31.459Z,85.20
2023-05-14T05:53:57.895Z,84.37
2023-05-14T05:56:24.262Z,84.14
2023-05-14T05:58:50.672Z,83.57
2023-05-14T06:01:17.061Z,83.38
2023-05-14T06:03:43.821Z,82.62
2023-05-14T06:06:11.247Z,82.29
2023-05-14T06:08:37.680Z,81.56
2023-05-14T06:11:04.623Z,81.91
2023-05-14T06:13:31.029Z,79.85
2023-05-14T06:15:57.489Z,79.52
2023-05-14T06:18:23.972Z,78.44
2023-05-14T06:20:50.427Z,78.58
2023-05-14T06:23:16.868Z,77.49
2023-05-14T06:25:43.358Z,76.32
2023-05-14T06:28:09.834Z,75.71
2023-05-14T06:30:36.234Z,74.38
2023-05-14T06:33:02.689Z,73.31
2023-05-14T06:35:29.229Z,72.82
2023-05-14T06:37:55.798Z,72.87
2023-05-14T06:40:22.591Z,74.28
2023-05-14T06:42:49.388Z,68.44
2023-05-14T06:45:15.862Z,70.68
2023-05-14T06:47:42.396Z,66.85
2023-05-14T06:50:10.814Z,68.90
2023-05-14T06:52:37.727Z,70.53
2023-05-14T06:55:04.392Z,66.49
2023-05-14T06:57:30.840Z,63.66
2023-05-14T06:59:57.479Z,60.56
2023-05-14T07:02:24.050Z,66.64
2023-05-14T07:04:50.500Z,62.69
2023-05-14T07:07:20.544Z,62.35
2023-05-14T07:09:47.636Z,61.97
2023-05-14T07:12:14.139Z,64.48
2023-05-14T07:14:40.552Z,62.33
2023-05-14T07:17:07.054Z,61.47
2023-05-14T07:19:33.523Z,58.42
2023-05-14T07:21:59.940Z,60.85
2023-05-14T07:24:26.420Z,55.61
2023-05-14T07:26:54.262Z,57.68
2023-05-14T07:29:30.317Z,59.67
2023-05-14T07:31:56.790Z,59.74
2023-05-14T07:34:23.186Z,54.55
2023-05-14T07:36:49.684Z,55.35
2023-05-14T07:39:16.092Z,58.57
2023-05-14T07:41:42.493Z,60.57
2023-05-14T07:44:09.079Z,57.68
2023-05-14T07:46:36.597Z,59.05
2023-05-14T07:49:03.243Z,60.03
2023-05-14T07:51:30.342Z,61.45
2023-05-14T07:53:56.738Z,57.46
2023-05-14T07:56:23.313Z,57.11
2023-05-14T07:58:51.011Z,60.70
2023-05-14T08:01:17.813Z,60.75
2023-05-14T08:03:44.315Z,60.41
2023-05-14T08:06:10.848Z,60.78
2023-05-14T08:08:37.331Z,58.89
2023-05-14T08:11:04.012Z,61.20
2023-05-14T08:13:30.503Z,61.14
2023-05-14T08:15:56.888Z,60.02
2023-05-14T08:18:23.312Z,60.65
2023-05-14T08:20:49.706Z,61.88
2023-05-14T08:23:16.138Z,59.54
2023-05-14T08:25:42.547Z,60.48
2023-05-14T08:28:09.052Z,59.36
2023-05-14T08:30:35.685Z,59.52
2023-05-14T08:33:02.354Z,57.33
2023-05-14T08:35:28.918Z,57.07
2023-05-14T08:37:56.835Z,58.67
2023-05-14T08:40:23.757Z,57.61
2023-05-14T08:42:51.474Z,59.18
2023-05-14T08:45:25.573Z,56.40
2023-05-14T08:47:52.092Z,57.32
2023-05-14T08:50:22.575Z,53.50
2023-05-14T08:52:49.847Z,52.69
2023-05-14T08:55:16.252Z,54.02
2023-05-14T08:57:42.713Z,54.43
2023-05-14T09:00:12.410Z,52.99
2023-05-14T09:02:44.442Z,54.56
2023-05-14T09:05:10.996Z,53.98
2023-05-14T09:07:37.408Z,55.02
2023-05-14T09:10:04.687Z,54.50
2023-05-14T09:12:31.352Z,57.05
2023-05-14T09:14:57.777Z,58.20
2023-05-14T09:17:27.864Z,56.60
2023-05-14T09:19:54.591Z,56.92
2023-05-14T09:22:21.142Z,58.72
2023-05-14T09:25:02.554Z,58.25
2023-05-14T09:27:31.769Z,56.98
2023-05-14T09:30:11.486Z,55.87
2023-05-14T09:32:40.291Z,54.24
2023-05-14T09:35:17.068Z,53.75
2023-05-14T09:37:45.420Z,52.16
2023-05-14T09:40:13.265Z,54.58
2023-05-14T09:42:40.804Z,57.04
2023-05-14T09:45:09.562Z,56.59
2023-05-14T09:47:37.627Z,56.95
2023-05-14T09:50:05.688Z,57.94
2023-05-14T09:52:32.693Z,57.14
2023-05-14T09:55:00.186Z,56.77
2023-05-14T09:57:27.233Z,56.51
2023-05-14T09:59:54.138Z,56.99
2023-05-14T10:02:36.808Z,59.05
2023-05-14T10:05:05.896Z,55.93
2023-05-14T10:07:41.688Z,59.62
2023-05-14T10:10:13.605Z,59.25
2023-05-14T10:12:40.739Z,59.56
2023-05-14T10:15:16.632Z,58.66
2023-05-14T10:17:55.402Z,58.53
2023-05-14T10:20:23.421Z,58.67
2023-05-14T10:22:51.124Z,56.44
2023-05-14T10:25:18.118Z,58.19
2023-05-14T10:27:45.152Z,54.19
2023-05-14T10:30:12.841Z,55.47
2023-05-14T10:32:41.846Z,53.79
2023-05-14T10:35:22.777Z,50.91
2023-05-14T10:37:51.783Z,52.98
2023-05-14T10:40:19.181Z,51.75
2023-05-14T10:42:46.618Z,51.84
2023-05-14T10:45:14.836Z,49.53
2023-05-14T10:47:48.308Z,50.20
2023-05-14T10:50:16.076Z,48.61
2023-05-14T10:52:43.872Z,52.44
2023-05-14T10:55:14.267Z,49.33
2023-05-14T10:57:43.463Z,49.32
2023-05-14T11:00:11.194Z,51.71
2023-05-14T11:02:40.618Z,45.25
2023-05-14T11:05:13.799Z,48.27
2023-05-14T11:07:48.090Z,49.54
2023-05-14T11:10:19.483Z,47.94
2023-05-14T11:12:48.005Z,45.58
2023-05-14T11:15:16.935Z,46.85
2023-05-14T11:17:44.956Z,48.65
2023-05-14T11:20:12.319Z,50.63
2023-05-14T11:22:40.765Z,47.95
2023-05-14T11:25:08.612Z,46.99
2023-05-14T11:27:36.689Z,46.02
2023-05-14T11:30:03.898Z,43.81
2023-05-14T11:32:33.136Z,47.32
2023-05-14T11:34:59.574Z,44.74
2023-05-14T11:37:26.028Z,46.11
2023-05-14T11:39:54.655Z,45.19
2023-05-14T11:42:22.406Z,43.90
2023-05-14T11:44:51.572Z,38.47
2023-05-14T11:47:19.697Z,43.85
2023-05-14T11:49:47.031Z,40.77
2023-05-14T11:52:15.369Z,38.47
2023-05-14T11:54:43.711Z,43.33
2023-05-14T11:57:15.503Z,39.61
2023-05-14T11:59:42.310Z,38.41
2023-05-14T12:02:11.983Z,38.73
2023-05-14T12:04:38.803Z,41.47
2023-05-14T12:07:10.133Z,39.36
2023-05-14T12:09:39.368Z,40.74
2023-05-14T12:12:11.319Z,41.11
2023-05-14T12:14:42.681Z,42.85
2023-05-14T12:17:15.019Z,41.99
2023-05-14T12:19:43.123Z,41.77
2023-05-14T12:22:11.402Z,43.46
2023-05-14T12:24:39.187Z,42.17
2023-05-14T12:27:07.306Z,40.54
2023-05-14T12:29:38.926Z,41.11
2023-05-14T12:32:09.812Z,42.35
2023-05-14T12:34:38.012Z,43.27
2023-05-14T12:37:05.560Z,44.09
2023-05-14T12:39:33.726Z,44.37
2023-05-14T12:42:00.422Z,43.68
2023-05-14T12:44:28.076Z,43.99
2023-05-14T12:46:54.830Z,43.28
2023-05-14T12:49:21.243Z,45.35
2023-05-14T12:51:47.666Z,43.55
2023-05-14T12:54:15.774Z,44.10
2023-05-14T12:56:42.383Z,44.34
2023-05-14T12:59:09.567Z,42.36
2023-05-14T13:01:36.845Z,43.32
2023-05-14T13:04:03.741Z,43.55
2023-05-14T13:06:31.778Z,42.54
2023-05-14T13:09:00.161Z,39.95
2023-05-14T13:11:27.216Z,41.14
2023-05-14T13:13:53.646Z,42.06
2023-05-14T13:16:20.133Z,40.06
2023-05-14T13:18:46.656Z,41.03
2023-05-14T13:21:13.111Z,39.78
2023-05-14T13:23:39.616Z,37.93
2023-05-14T13:26:06.199Z,38.82
2023-05-14T13:28:32.649Z,37.92
2023-05-14T13:31:10.652Z,37.48
2023-05-14T13:33:40.085Z,37.70
2023-05-14T13:36:08.016Z,36.62
2023-05-14T13:38:34.823Z,38.02
2023-05-14T13:41:03.991Z,38.61
2023-05-14T13:43:34.693Z,36.95
2023-05-14T13:46:02.260Z,36.93
2023-05-14T13:48:28.984Z,38.79
2023-05-14T13:50:55.430Z,38.96
2023-05-14T13:53:23.082Z,38.00
2023-05-14T13:55:50.555Z,38.91
2023-05-14T13:58:17.276Z,33.94
2023-05-14T14:00:43.714Z,34.18
2023-05-14T14:03:10.146Z,36.64
2023-05-14T14:05:36.765Z,34.27
2023-05-14T14:08:13.198Z,33.81
2023-05-14T14:10:49.000Z,36.68
2023-05-14T14:13:15.470Z,33.33
2023-05-14T14:15:42.518Z,33.58
2023-05-14T14:18:09.000Z,32.67
2023-05-14T14:20:35.426Z,34.03
2023-05-14T14:23:01.952Z,34.37
2023-05-14T14:25:28.360Z,33.89
2023-05-14T14:27:54.848Z,33.70
2023-05-14T14:30:21.367Z,32.50
2023-05-14T14:32:49.230Z,32.99
2023-05-14T14:35:17.880Z,32.50
2023-05-14T14:37:48.886Z,33.79
2023-05-14T14:40:16.538Z,34.61
2023-05-14T14:42:43.527Z,34.38
2023-05-14T14:45:10.735Z,33.28
2023-05-14T14:47:37.605Z,32.50
2023-05-14T14:50:04.863Z,33.26
2023-05-14T14:52:31.420Z,32.04
2023-05-14T14:54:57.966Z,34.51
2023-05-14T14:57:24.448Z,34.37
2023-05-14T14:59:50.887Z,33.44
2023-05-14T15:02:17.475Z,34.38
2023-05-14T15:04:44.041Z,33.06
2023-05-14T15:07:11.157Z,33.10
2023-05-14T15:09:37.674Z,33.28
2023-05-14T15:12:04.436Z,33.47
2023-05-14T15:14:30.834Z,34.47
2023-05-14T15:16:57.250Z,34.50
2023-05-14T15:19:23.656Z,34.81
2023-05-14T15:21:50.153Z,35.06
2023-05-14T15:24:16.585Z,35.43
2023-05-14T15:26:43.014Z,35.32
2023-05-14T15:29:09.474Z,35.11
2023-05-14T15:34:16.259Z,36.60
2023-05-14T15:36:42.691Z,35.75
2023-05-14T15:39:10.371Z,36.77
2023-05-14T15:41:37.082Z,37.12
2023-05-14T15:44:03.650Z,36.66
2023-05-14T15:46:30.944Z,36.54
2023-05-14T15:48:57.897Z,37.03
2023-05-14T15:51:24.373Z,37.64
2023-05-14T15:53:52.971Z,36.81
2023-05-14T15:56:19.657Z,37.76
2023-05-14T15:58:46.060Z,37.53
2023-05-14T16:01:12.584Z,37.36
2023-05-14T16:03:39.065Z,37.44
2023-05-14T16:06:06.009Z,37.34
2023-05-14T16:08:36.187Z,38.05
2023-05-14T16:11:04.516Z,38.64
2023-05-14T16:13:30.980Z,38.89
2023-05-14T16:15:59.400Z,38.09
2023-05-14T16:18:26.315Z,38.34
2023-05-14T16:20:53.414Z,39.15
2023-05-14T16:23:19.814Z,38.77
2023-05-14T16:25:46.329Z,39.82
2023-05-14T16:28:13.376Z,39.23
2023-05-14T16:30:39.829Z,39.85
2023-05-14T16:33:06.489Z,39.52
2023-05-14T16:35:36.190Z,39.61
2023-05-14T16:38:02.693Z,39.89
2023-05-14T16:40:29.087Z,40.18
2023-05-14T16:42:55.495Z,40.24
2023-05-14T16:45:22.075Z,40.31
2023-05-14T16:47:48.706Z,40.65
2023-05-14T16:50:15.377Z,40.71
2023-05-14T16:52:41.813Z,40.83
2023-05-14T16:55:08.744Z,41.11
2023-05-14T16:57:35.240Z,40.93
2023-05-14T17:00:04.467Z,41.06
2023-05-14T17:02:31.142Z,41.22
2023-05-14T17:04:59.019Z,41.47
2023-05-14T17:07:25.671Z,41.33
2023-05-14T17:09:52.143Z,41.88
2023-05-14T17:12:18.542Z,41.82
2023-05-14T17:14:45.112Z,42.08
2023-05-14T17:17:11.540Z,42.51
2023-05-14T17:19:37.964Z,42.51
2023-05-14T17:22:05.851Z,42.91
2023-05-14T17:24:32.313Z,43.22
2023-05-14T17:26:59.027Z,43.63
2023-05-14T17:29:25.680Z,43.74
2023-05-14T17:31:52.270Z,43.97
2023-05-14T17:34:18.930Z,43.94
2023-05-14T17:36:45.921Z,44.81
2023-05-14T17:39:12.451Z,44.66
2023-05-14T17:41:39.295Z,43.98
2023-05-14T17:44:05.769Z,44.94
2023-05-14T17:46:33.566Z,45.12
2023-05-14T17:49:00.189Z,44.91
2023-05-14T17:51:26.678Z,45.34
2023-05-14T17:53:53.277Z,45.26
2023-05-14T17:56:19.823Z,45.45
2023-05-14T17:58:46.524Z,46.05
2023-05-14T18:01:13.018Z,45.91
2023-05-14T18:03:39.480Z,45.93
2023-05-14T18:06:06.184Z,46.50
2023-05-14T18:08:32.604Z,45.85
2023-05-14T18:11:00.704Z,46.23
2023-05-14T18:13:27.361Z,46.17
2023-05-14T18:15:54.347Z,46.07
2023-05-14T18:18:21.735Z,45.92
2023-05-14T18:20:49.316Z,46.22
2023-05-14T18:23:15.929Z,46.52
2023-05-14T18:25:42.539Z,46.73
2023-05-14T18:28:09.498Z,46.96
2023-05-14T18:30:36.101Z,47.00
2023-05-14T18:33:02.632Z,47.35
2023-05-14T18:35:29.128Z,47.61
2023-05-14T18:37:55.608Z,47.55
2023-05-14T18:40:22.206Z,47.90
2023-05-14T18:42:48.660Z,47.88
2023-05-14T18:45:15.195Z,48.05
2023-05-14T18:47:41.728Z,48.27
2023-05-14T18:50:08.616Z,48.84
2023-05-14T18:52:35.304Z,49.03
2023-05-14T18:55:01.785Z,49.02
2023-05-14T18:57:29.361Z,49.13
2023-05-14T18:59:55.850Z,49.22
2023-05-14T19:02:24.477Z,49.35
2023-05-14T19:04:52.205Z,49.11
2023-05-14T19:07:20.111Z,49.46
2023-05-14T19:09:46.521Z,49.53
2023-05-14T19:12:13.341Z,49.61
2023-05-14T19:14:39.747Z,50.25
2023-05-14T19:17:06.282Z,50.03
2023-05-14T19:19:32.743Z,51.16
2023-05-14T19:21:59.223Z,53.07
2023-05-14T19:24:25.868Z,52.92
2023-05-14T19:26:52.521Z,53.10
2023-05-14T19:29:19.102Z,52.01
2023-05-14T19:31:45.555Z,51.86
2023-05-14T19:34:12.027Z,51.51
2023-05-14T19:36:38.518Z,51.46
2023-05-14T19:39:05.165Z,51.47
2023-05-14T19:41:31.625Z,51.99
2023-05-14T19:43:58.088Z,52.13
2023-05-14T19:46:24.612Z,52.14
2023-05-14T19:48:51.082Z,52.53
2023-05-14T19:51:17.522Z,52.33
2023-05-14T19:53:44.052Z,52.78
2023-05-14T19:56:10.855Z,53.53
2023-05-14T19:58:37.325Z,53.03
2023-05-14T20:01:04.345Z,53.13
2023-05-14T20:03:30.957Z,52.99
2023-05-14T20:05:57.940Z,52.95
2023-05-14T20:08:24.881Z,53.53
2023-05-14T20:10:51.421Z,53.84
2023-05-14T20:13:17.863Z,52.97
2023-05-14T20:15:44.339Z,53.72
2023-05-14T20:18:10.762Z,53.77
2023-05-14T20:20:37.370Z,53.70
2023-05-14T20:23:03.897Z,53.60
2023-05-14T20:25:32.880Z,54.09
2023-05-14T20:28:02.458Z,54.62
2023-05-14T20:30:28.938Z,54.59
2023-05-14T20:32:55.803Z,54.98
2023-05-14T20:35:22.250Z,54.43
2023-05-14T20:37:49.479Z,54.78
2023-05-14T20:40:15.981Z,55.42
2023-05-14T20:42:42.509Z,55.32
2023-05-14T20:45:09.464Z,55.17
2023-05-14T20:47:36.254Z,55.51
2023-05-14T20:50:02.873Z,55.67
2023-05-14T20:52:29.312Z,55.57
2023-05-14T20:54:55.734Z,55.62
2023-05-14T20:57:22.618Z,55.63
2023-05-14T20:59:49.090Z,55.98
2023-05-14T21:02:15.932Z,56.00
2023-05-14T21:04:42.818Z,56.68
2023-05-14T21:07:09.340Z,56.73
2023-05-14T21:09:35.757Z,57.04
2023-05-14T21:12:02.142Z,57.03
2023-05-14T21:14:28.563Z,57.21
2023-05-14T21:16:55.083Z,57.83
2023-05-14T21:19:22.838Z,58.39
2023-05-14T21:21:49.404Z,59.10
2023-05-14T21:24:16.778Z,59.66
2023-05-14T21:26:43.307Z,58.58
2023-05-14T21:29:09.769Z,60.43
2023-05-14T21:31:36.235Z,58.86
2023-05-14T21:34:02.832Z,59.28
2023-05-14T21:36:29.302Z,58.79
2023-05-14T21:38:55.781Z,58.54
2023-05-14T21:41:22.214Z,58.80
2023-05-14T21:43:48.600Z,59.32
2023-05-14T21:46:15.158Z,59.78
2023-05-14T21:48:41.783Z,60.30
2023-05-14T21:51:08.303Z,60.36
2023-05-14T21:53:34.862Z,62.42
2023-05-14T21:56:01.289Z,61.32
2023-05-14T21:58:28.043Z,61.05
2023-05-14T22:00:54.535Z,60.82
2023-05-14T22:03:21.030Z,60.76
2023-05-14T22:05:47.738Z,60.77
2023-05-14T22:08:14.154Z,61.18
2023-05-14T22:10:40.851Z,61.58
2023-05-14T22:13:07.310Z,62.34
2023-05-14T22:15:34.430Z,63.49
2023-05-14T22:18:00.978Z,62.50
2023-05-14T22:20:27.431Z,63.65
2023-05-14T22:22:53.974Z,62.71
2023-05-14T22:25:20.407Z,63.16
2023-05-14T22:27:46.843Z,63.50
2023-05-14T22:30:13.406Z,63.60
2023-05-14T22:32:39.876Z,63.24
2023-05-14T22:35:06.511Z,63.66
2023-05-14T22:37:32.973Z,64.04
2023-05-14T22:39:59.419Z,64.09
2023-05-14T22:42:27.214Z,67.51
2023-05-14T22:44:53.718Z,70.19
2023-05-14T22:47:20.225Z,71.12
2023-05-14T22:49:46.924Z,68.77
2023-05-14T22:52:13.385Z,67.61
2023-05-14T22:54:39.839Z,69.26
2023-05-14T22:57:06.693Z,68.25
2023-05-14T22:59:33.254Z,67.66
2023-05-14T23:02:01.260Z,68.50
2023-05-14T23:04:27.738Z,68.00
2023-05-14T23:06:54.177Z,67.82
2023-05-14T23:09:20.760Z,70.04
2023-05-14T23:11:47.344Z,69.28
2023-05-14T23:14:13.766Z,68.45
2023-05-14T23:16:40.196Z,69.18
2023-05-14T23:19:06.796Z,69.42
2023-05-14T23:21:33.430Z,69.49
2023-05-14T23:23:59.829Z,69.29
2023-05-14T23:26:26.252Z,71.88
2023-05-14T23:28:52.703Z,70.60
2023-05-14T23:31:19.146Z,71.21
2023-05-14T23:33:46.324Z,72.51
2023-05-14T23:36:12.877Z,72.30
2023-05-14T23:38:39.930Z,72.71
2023-05-14T23:41:06.346Z,72.75
2023-05-14T23:43:33.745Z,73.55
2023-05-14T23:46:00.642Z,79.47
2023-05-14T23:48:27.161Z,77.02
2023-05-14T23:50:53.683Z,77.62
2023-05-14T23:53:20.355Z,74.92
2023-05-14T23:55:47.085Z,78.62
2023-05-14T23:58:13.617Z,78.32
